createdAt,value
2023-01-28T00:02:59.640Z,77.86
2023-01-28T00:15:50.792Z,75.13
2023-01-28T00:18:17.903Z,74.89
2023-01-28T00:20:58.505Z,75.84
2023-01-28T00:27:16.215Z,74.75
2023-01-28T00:33:36.988Z,74.83
2023-01-28T00:36:19.625Z,74.77
2023-01-28T00:39:37.570Z,74.91
2023-01-28T00:43:13.656Z,74.31
2023-01-28T00:45:55.321Z,75.06
2023-01-28T00:48:48.218Z,76.58
2023-01-28T00:55:02.386Z,75.01
2023-01-28T01:05:53.095Z,73.09
2023-01-28T01:12:37.355Z,74.72
2023-01-28T01:15:34.841Z,74.34
2023-01-28T01:21:47.282Z,74.27
2023-01-28T01:24:46.531Z,74.96
2023-01-28T01:41:55.544Z,77.70
2023-01-28T01:44:54.877Z,77.45
2023-01-28T01:47:47.194Z,77.27
2023-01-28T01:51:12.189Z,76.18
2023-01-28T01:54:10.302Z,76.31
2023-01-28T02:03:24.132Z,76.18
2023-01-28T02:12:58.505Z,75.23
2023-01-28T02:15:52.030Z,74.91
2023-01-28T02:18:52.441Z,74.88
2023-01-28T02:22:18.115Z,75.13
2023-01-28T02:25:43.815Z,75.22
2023-01-28T02:28:42.587Z,74.74
2023-01-28T02:31:19.361Z,74.46
2023-01-28T02:34:08.869Z,73.03
2023-01-28T02:36:43.612Z,72.84
2023-01-28T02:39:18.747Z,71.92
2023-01-28T02:41:53.520Z,72.57
2023-01-28T02:44:20.673Z,72.22
2023-01-28T02:47:06.073Z,71.25
2023-01-28T02:49:49.128Z,73.49
2023-01-28T02:52:56.314Z,72.71
2023-01-28T02:55:51.451Z,72.08
2023-01-28T02:58:29.343Z,71.71
2023-01-28T03:01:03.281Z,71.39
2023-01-28T03:03:48.553Z,70.91
2023-01-28T03:06:21.389Z,71.17
2023-01-28T03:09:15.515Z,72.00
2023-01-28T03:12:06.721Z,72.77
2023-01-28T03:14:54.998Z,71.61
2023-01-28T03:18:01.152Z,71.70
2023-01-28T03:20:55.777Z,71.44
2023-01-28T03:23:49.560Z,70.95
2023-01-28T03:26:40.540Z,71.97
2023-01-28T03:29:30.845Z,72.57
2023-01-28T03:32:18.756Z,71.64
2023-01-28T03:35:05.352Z,71.16
2023-01-28T03:37:34.571Z,71.80
2023-01-28T03:40:14.223Z,72.47
2023-01-28T03:42:43.776Z,72.33
2023-01-28T03:45:22.666Z,71.79
2023-01-28T03:47:49.891Z,71.69
2023-01-28T03:50:17.152Z,71.43
2023-01-28T03:53:11.771Z,70.43
2023-01-28T03:55:48.847Z,70.54
2023-01-28T03:58:46.109Z,70.34
2023-01-28T04:01:13.889Z,70.10
2023-01-28T04:03:41.024Z,71.43
2023-01-28T04:06:13.756Z,71.40
2023-01-28T04:09:10.035Z,71.64
2023-01-28T04:11:59.966Z,71.06
2023-01-28T04:14:39.723Z,70.72
2023-01-28T04:17:11.156Z,70.13
2023-01-28T04:19:39.952Z,69.27
2023-01-28T04:22:10.862Z,69.04
2023-01-28T04:24:39.193Z,67.86
2023-01-28T04:27:07.079Z,68.09
2023-01-28T04:29:34.954Z,69.32
2023-01-28T04:32:21.855Z,69.52
2023-01-28T04:35:15.417Z,69.12
2023-01-28T04:38:15.440Z,68.30
2023-01-28T04:40:53.016Z,68.56
2023-01-28T04:43:28.930Z,67.93
2023-01-28T04:46:15.161Z,66.94
2023-01-28T04:48:52.778Z,66.80
2023-01-28T04:51:39.077Z,66.78
2023-01-28T04:54:27.113Z,66.46
2023-01-28T04:56:57.716Z,65.48
2023-01-28T04:59:25.188Z,64.63
2023-01-28T05:01:52.325Z,64.50
2023-01-28T05:04:20.032Z,64.16
2023-01-28T05:06:47.382Z,63.99
2023-01-28T05:09:17.349Z,63.43
2023-01-28T05:11:44.612Z,62.76
2023-01-28T05:14:11.965Z,62.92
2023-01-28T05:16:43.773Z,62.55
2023-01-28T05:19:11.862Z,62.45
2023-01-28T05:21:41.799Z,62.40
2023-01-28T05:24:17.908Z,62.56
2023-01-28T05:26:45.269Z,62.47
2023-01-28T05:29:12.591Z,62.18
2023-01-28T05:31:40.061Z,62.01
2023-01-28T05:34:08.071Z,61.82
2023-01-28T05:36:35.150Z,62.45
2023-01-28T05:39:08.624Z,61.54
2023-01-28T05:41:35.829Z,61.77
2023-01-28T05:44:03.754Z,62.16
2023-01-28T05:46:48.000Z,61.92
2023-01-28T05:49:47.163Z,61.73
2023-01-28T05:52:34.622Z,60.86
2023-01-28T05:55:02.673Z,61.37
2023-01-28T05:57:30.305Z,61.18
2023-01-28T05:59:57.541Z,60.97
2023-01-28T06:02:24.695Z,61.01
2023-01-28T06:04:55.179Z,60.46
2023-01-28T06:07:23.555Z,60.38
2023-01-28T06:09:50.718Z,60.81
2023-01-28T06:12:20.601Z,61.26
2023-01-28T06:15:13.739Z,61.04
2023-01-28T06:17:55.933Z,60.46
2023-01-28T06:20:31.054Z,60.35
2023-01-28T06:22:58.738Z,60.43
2023-01-28T06:25:26.127Z,60.03
2023-01-28T06:27:54.012Z,59.99
2023-01-28T06:30:21.077Z,60.71
2023-01-28T06:32:53.976Z,60.55
2023-01-28T06:35:21.362Z,60.19
2023-01-28T06:37:48.528Z,59.92
2023-01-28T06:40:16.104Z,60.06
2023-01-28T06:42:43.460Z,60.19
2023-01-28T06:45:11.489Z,60.32
2023-01-28T06:47:39.389Z,59.31
2023-01-28T06:50:07.475Z,59.91
2023-01-28T06:52:34.539Z,59.45
2023-01-28T06:55:01.776Z,59.19
2023-01-28T06:57:28.890Z,58.94
2023-01-28T06:59:56.002Z,58.67
2023-01-28T07:02:23.627Z,58.49
2023-01-28T07:04:51.684Z,58.71
2023-01-28T07:07:18.849Z,58.69
2023-01-28T07:09:46.210Z,58.57
2023-01-28T07:12:13.302Z,59.31
2023-01-28T07:14:40.526Z,58.47
2023-01-28T07:17:07.628Z,58.39
2023-01-28T07:19:34.958Z,59.03
2023-01-28T07:22:02.951Z,58.28
2023-01-28T07:24:30.875Z,59.14
2023-01-28T07:26:58.157Z,59.64
2023-01-28T07:29:25.449Z,60.07
2023-01-28T07:31:52.625Z,59.92
2023-01-28T07:34:19.777Z,59.38
2023-01-28T07:36:46.820Z,59.05
2023-01-28T07:39:13.858Z,59.15
2023-01-28T07:41:41.122Z,58.94
2023-01-28T07:44:10.330Z,58.98
2023-01-28T07:46:37.891Z,59.06
2023-01-28T07:49:04.967Z,57.90
2023-01-28T07:51:32.171Z,58.11
2023-01-28T07:53:59.447Z,57.96
2023-01-28T07:56:28.914Z,58.21
2023-01-28T07:58:56.064Z,57.31
2023-01-28T08:01:23.246Z,57.06
2023-01-28T08:03:50.401Z,57.22
2023-01-28T08:06:17.543Z,56.75
2023-01-28T08:08:44.824Z,57.38
2023-01-28T08:11:11.926Z,57.37
2023-01-28T08:13:39.404Z,57.60
2023-01-28T08:16:06.909Z,56.67
2023-01-28T08:18:34.294Z,56.39
2023-01-28T08:21:01.452Z,56.21
2023-01-28T08:23:30.061Z,56.71
2023-01-28T08:25:58.967Z,57.01
2023-01-28T08:28:26.654Z,56.48
2023-01-28T08:30:53.940Z,56.43
2023-01-28T08:33:21.756Z,56.70
2023-01-28T08:35:48.806Z,56.22
2023-01-28T08:38:19.920Z,56.73
2023-01-28T08:40:49.966Z,55.94
2023-01-28T08:43:17.251Z,55.95
2023-01-28T08:45:44.429Z,56.32
2023-01-28T08:48:15.846Z,56.28
2023-01-28T08:50:44.132Z,56.53
2023-01-28T08:53:14.418Z,55.99
2023-01-28T08:55:42.222Z,55.38
2023-01-28T08:58:12.109Z,55.14
2023-01-28T09:00:40.336Z,55.92
2023-01-28T09:03:08.019Z,55.61
2023-01-28T09:05:35.720Z,54.66
2023-01-28T09:08:08.741Z,54.66
2023-01-28T09:10:37.812Z,54.73
2023-01-28T09:13:10.569Z,54.56
2023-01-28T09:15:38.408Z,53.78
2023-01-28T09:18:05.731Z,53.99
2023-01-28T09:20:33.346Z,54.59
2023-01-28T09:23:01.723Z,54.25
2023-01-28T09:25:29.442Z,52.86
2023-01-28T09:27:57.369Z,52.38
2023-01-28T09:30:25.492Z,51.88
2023-01-28T09:32:54.397Z,52.61
2023-01-28T09:35:22.211Z,53.13
2023-01-28T09:37:49.733Z,52.74
2023-01-28T09:40:25.499Z,53.08
2023-01-28T09:42:59.015Z,54.31
2023-01-28T09:45:42.681Z,53.20
2023-01-28T09:48:15.432Z,52.45
2023-01-28T09:50:48.053Z,53.21
2023-01-28T09:53:19.784Z,53.47
2023-01-28T09:55:50.949Z,53.54
2023-01-28T09:58:18.131Z,53.01
2023-01-28T10:00:54.077Z,53.18
2023-01-28T10:03:43.706Z,54.09
2023-01-28T10:06:20.020Z,53.49
2023-01-28T10:09:17.948Z,53.39
2023-01-28T10:11:59.894Z,52.30
2023-01-28T10:14:45.024Z,52.60
2023-01-28T10:17:34.888Z,53.10
2023-01-28T10:20:17.735Z,53.44
2023-01-28T10:22:51.240Z,54.17
2023-01-28T10:25:24.952Z,53.65
2023-01-28T10:27:52.867Z,52.67
2023-01-28T10:30:24.937Z,53.50
2023-01-28T10:33:04.158Z,53.81
2023-01-28T10:35:38.087Z,53.88
2023-01-28T10:38:10.421Z,54.60
2023-01-28T10:40:37.546Z,54.30
2023-01-28T10:43:04.946Z,53.20
2023-01-28T10:45:45.546Z,53.04
2023-01-28T10:48:21.897Z,53.03
2023-01-28T10:51:02.064Z,53.37
2023-01-28T10:53:37.297Z,54.31
2023-01-28T10:56:08.746Z,53.41
2023-01-28T10:58:53.872Z,52.71
2023-01-28T11:01:22.023Z,53.21
2023-01-28T11:03:57.735Z,53.37
2023-01-28T11:06:29.541Z,54.04
2023-01-28T11:08:56.698Z,54.80
2023-01-28T11:11:28.163Z,53.99
2023-01-28T11:13:58.055Z,53.94
2023-01-28T11:16:26.455Z,53.41
2023-01-28T11:18:57.565Z,53.51
2023-01-28T11:21:27.546Z,54.43
2023-01-28T11:23:59.563Z,55.25
2023-01-28T11:26:34.258Z,55.25
2023-01-28T11:29:01.409Z,55.47
2023-01-28T11:31:29.075Z,55.10
2023-01-28T11:33:57.170Z,54.58
2023-01-28T11:36:32.442Z,53.51
2023-01-28T11:39:05.036Z,52.66
2023-01-28T11:41:37.631Z,53.42
2023-01-28T11:44:25.918Z,54.14
2023-01-28T11:47:14.507Z,53.27
2023-01-28T11:49:48.494Z,53.28
2023-01-28T11:53:04.871Z,53.42
2023-01-28T11:55:41.287Z,54.53
2023-01-28T11:58:31.709Z,54.13
2023-01-28T12:01:36.094Z,54.37
2023-01-28T12:04:42.813Z,54.13
2023-01-28T12:07:28.515Z,54.29
2023-01-28T12:10:19.184Z,54.41
2023-01-28T12:13:09.661Z,54.38
2023-01-28T12:15:39.608Z,53.94
2023-01-28T12:18:22.732Z,54.03
2023-01-28T12:21:00.851Z,54.31
2023-01-28T12:23:50.764Z,54.72
2023-01-28T12:26:50.361Z,54.07
2023-01-28T12:29:47.072Z,54.93
2023-01-28T12:32:39.100Z,54.07
2023-01-28T12:35:25.508Z,54.30
2023-01-28T12:38:07.188Z,54.58
2023-01-28T12:40:57.205Z,53.91
2023-01-28T12:43:49.003Z,54.63
2023-01-28T12:46:22.348Z,54.60
2023-01-28T12:48:58.468Z,54.78
2023-01-28T12:51:36.072Z,53.90
2023-01-28T12:54:21.811Z,54.47
2023-01-28T12:56:52.776Z,54.61
2023-01-28T12:59:28.878Z,55.01
2023-01-28T13:02:11.195Z,54.41
2023-01-28T13:04:47.631Z,54.44
2023-01-28T13:07:22.074Z,55.57
2023-01-28T13:09:54.503Z,55.99
2023-01-28T13:12:22.621Z,55.92
2023-01-28T13:14:52.652Z,56.13
2023-01-28T13:17:29.522Z,54.70
2023-01-28T13:19:58.859Z,54.79
2023-01-28T13:22:28.164Z,54.58
2023-01-28T13:24:55.362Z,54.88
2023-01-28T13:27:25.514Z,54.82
2023-01-28T13:30:06.988Z,55.24
2023-01-28T13:32:35.532Z,54.65
2023-01-28T13:35:26.759Z,54.78
2023-01-28T13:37:56.883Z,55.46
2023-01-28T13:40:28.599Z,55.23
2023-01-28T13:43:23.337Z,53.75
2023-01-28T13:46:01.768Z,53.24
2023-01-28T13:48:46.025Z,53.85
2023-01-28T13:51:20.183Z,54.64
2023-01-28T13:53:55.854Z,54.62
2023-01-28T13:56:30.059Z,54.92
2023-01-28T13:59:29.487Z,54.64
2023-01-28T14:02:25.619Z,54.88
2023-01-28T14:05:20.273Z,54.41
2023-01-28T14:08:08.840Z,54.49
2023-01-28T14:10:44.743Z,54.44
2023-01-28T14:13:17.834Z,53.88
2023-01-28T14:16:03.078Z,53.87
2023-01-28T14:18:33.153Z,54.56
2023-01-28T14:21:03.209Z,54.37
2023-01-28T14:23:31.935Z,54.51
2023-01-28T14:26:33.056Z,54.51
2023-01-28T14:29:18.052Z,55.07
2023-01-28T14:31:45.976Z,54.86
2023-01-28T14:34:30.338Z,55.13
2023-01-28T14:37:04.373Z,54.88
2023-01-28T14:39:41.326Z,54.97
2023-01-28T14:42:17.879Z,54.65
2023-01-28T14:44:48.904Z,54.07
2023-01-28T14:47:45.791Z,53.38
2023-01-28T14:50:26.368Z,53.45
2023-01-28T14:53:02.696Z,53.59
2023-01-28T14:55:37.653Z,53.90
2023-01-28T14:58:12.530Z,53.78
2023-01-28T15:00:39.703Z,53.30
2023-01-28T15:03:26.741Z,52.74
2023-01-28T15:06:06.047Z,51.80
2023-01-28T15:08:33.276Z,52.01
2023-01-28T15:11:01.891Z,52.18
2023-01-28T15:13:34.013Z,52.21
2023-01-28T15:16:01.560Z,51.49
2023-01-28T15:18:42.372Z,50.48
2023-01-28T15:21:10.017Z,49.95
2023-01-28T15:23:41.568Z,50.73
2023-01-28T15:26:30.451Z,51.37
2023-01-28T15:28:57.868Z,51.44
2023-01-28T15:31:30.981Z,50.90
2023-01-28T15:34:19.027Z,50.74
2023-01-28T15:36:49.491Z,50.98
2023-01-28T15:39:22.494Z,52.30
2023-01-28T15:41:54.874Z,52.21
2023-01-28T15:44:29.853Z,51.39
2023-01-28T15:46:58.797Z,52.28
2023-01-28T15:49:31.368Z,53.07
2023-01-28T15:51:58.641Z,53.04
2023-01-28T15:54:26.430Z,53.65
2023-01-28T15:56:53.569Z,54.18
2023-01-28T15:59:27.766Z,53.43
2023-01-28T16:02:18.497Z,52.62
2023-01-28T16:05:00.300Z,53.51
2023-01-28T16:07:30.105Z,53.78
2023-01-28T16:09:59.384Z,53.44
2023-01-28T16:12:27.193Z,53.88
2023-01-28T16:14:57.453Z,53.83
2023-01-28T16:17:28.863Z,53.71
2023-01-28T16:20:05.645Z,54.12
2023-01-28T16:22:38.688Z,53.93
2023-01-28T16:25:21.070Z,54.19
2023-01-28T16:27:49.097Z,54.89
2023-01-28T16:30:16.996Z,55.90
2023-01-28T16:32:44.921Z,56.31
2023-01-28T16:35:23.179Z,56.46
2023-01-28T16:37:50.686Z,55.67
2023-01-28T16:40:24.690Z,55.35
2023-01-28T16:42:55.588Z,56.01
2023-01-28T16:45:25.823Z,56.97
2023-01-28T16:47:53.421Z,57.80
2023-01-28T16:50:22.463Z,58.00
2023-01-28T16:52:53.377Z,58.05
2023-01-28T16:55:22.098Z,57.54
2023-01-28T16:57:52.631Z,58.31
2023-01-28T17:00:25.337Z,58.78
2023-01-28T17:02:54.279Z,58.34
2023-01-28T17:05:22.820Z,58.06
2023-01-28T17:07:50.205Z,57.70
2023-01-28T17:10:17.902Z,57.78
2023-01-28T17:12:47.729Z,58.09
2023-01-28T17:15:15.650Z,58.15
2023-01-28T17:17:42.805Z,58.67
2023-01-28T17:20:11.110Z,58.00
2023-01-28T17:22:38.346Z,57.99
2023-01-28T17:25:05.948Z,58.58
2023-01-28T17:27:33.078Z,58.66
2023-01-28T17:30:00.192Z,59.08
2023-01-28T17:32:27.347Z,59.26
2023-01-28T17:34:54.494Z,59.66
2023-01-28T17:37:22.169Z,59.94
2023-01-28T17:39:49.316Z,60.24
2023-01-28T17:42:16.751Z,60.37
2023-01-28T17:44:43.865Z,60.19
2023-01-28T17:47:11.839Z,60.63
2023-01-28T17:49:38.992Z,60.92
2023-01-28T17:52:06.206Z,61.16
2023-01-28T17:54:34.912Z,61.12
2023-01-28T17:57:02.082Z,61.31
2023-01-28T17:59:29.962Z,60.99
2023-01-28T18:01:57.966Z,60.53
2023-01-28T18:04:25.135Z,60.72
2023-01-28T18:06:52.318Z,60.68
2023-01-28T18:09:19.588Z,60.90
2023-01-28T18:11:47.060Z,60.95
2023-01-28T18:14:14.229Z,61.43
2023-01-28T18:16:41.310Z,61.52
2023-01-28T18:19:10.634Z,61.29
2023-01-28T18:21:52.729Z,61.34
2023-01-28T18:24:23.334Z,61.77
2023-01-28T18:26:57.670Z,61.98
2023-01-28T18:29:26.148Z,61.92
2023-01-28T18:31:54.890Z,62.51
2023-01-28T18:34:24.092Z,62.55
2023-01-28T18:36:51.800Z,62.68
2023-01-28T18:39:19.927Z,62.44
2023-01-28T18:41:47.212Z,63.01
2023-01-28T18:44:15.324Z,63.26
2023-01-28T18:46:42.725Z,63.43
2023-01-28T18:49:10.278Z,63.53
2023-01-28T18:51:38.203Z,63.67
2023-01-28T18:54:08.820Z,63.51
2023-01-28T18:56:39.156Z,63.71
2023-01-28T18:59:09.461Z,63.73
2023-01-28T19:01:36.694Z,63.95
2023-01-28T19:04:03.971Z,64.41
2023-01-28T19:06:31.469Z,65.02
2023-01-28T19:09:02.811Z,64.85
2023-01-28T19:11:30.319Z,65.04
2023-01-28T19:13:57.991Z,65.72
2023-01-28T19:16:26.031Z,66.43
2023-01-28T19:18:59.154Z,66.30
2023-01-28T19:21:28.653Z,66.54
2023-01-28T19:23:59.971Z,66.74
2023-01-28T19:26:29.781Z,66.87
2023-01-28T19:28:57.235Z,67.43
2023-01-28T19:31:25.587Z,66.60
2023-01-28T19:33:55.734Z,66.39
2023-01-28T19:36:23.974Z,66.31
2023-01-28T19:38:52.049Z,66.08
2023-01-28T19:41:19.224Z,67.16
2023-01-28T19:43:47.093Z,66.93
2023-01-28T19:46:17.589Z,67.01
2023-01-28T19:48:45.170Z,67.81
2023-01-28T19:51:13.961Z,67.74
2023-01-28T19:53:42.761Z,67.85
2023-01-28T19:56:13.152Z,68.27
2023-01-28T19:58:43.005Z,68.49
2023-01-28T20:01:21.888Z,67.34
2023-01-28T20:03:51.689Z,66.86
2023-01-28T20:06:19.053Z,68.10
2023-01-28T20:08:51.888Z,68.44
2023-01-28T20:11:19.429Z,68.32
2023-01-28T20:13:47.854Z,69.18
2023-01-28T20:16:26.542Z,69.47
2023-01-28T20:18:53.605Z,69.23
2023-01-28T20:21:21.258Z,68.90
2023-01-28T20:23:51.102Z,69.64
2023-01-28T20:26:23.465Z,69.67
2023-01-28T20:28:50.933Z,70.87
2023-01-28T20:31:19.327Z,69.85
2023-01-28T20:33:46.710Z,70.01
2023-01-28T20:36:14.510Z,70.22
2023-01-28T20:38:47.114Z,70.62
2023-01-28T20:41:19.875Z,71.49
2023-01-28T20:43:48.662Z,71.56
2023-01-28T20:46:21.865Z,72.13
2023-01-28T20:48:49.707Z,72.75
2023-01-28T20:51:22.899Z,73.61
2023-01-28T20:53:50.703Z,73.93
2023-01-28T20:56:20.390Z,73.05
2023-01-28T20:58:53.188Z,72.84
2023-01-28T21:01:23.433Z,73.17
2023-01-28T21:03:50.968Z,72.65
2023-01-28T21:06:18.682Z,71.84
2023-01-28T21:08:45.814Z,73.01
2023-01-28T21:11:13.582Z,73.08
2023-01-28T21:13:40.842Z,73.67
2023-01-28T21:16:08.365Z,73.14
2023-01-28T21:18:35.532Z,73.55
2023-01-28T21:21:05.285Z,73.01
2023-01-28T21:23:32.782Z,74.30
2023-01-28T21:26:04.914Z,76.16
2023-01-28T21:28:32.375Z,74.85
2023-01-28T21:31:09.929Z,75.85
2023-01-28T21:33:37.357Z,74.87
2023-01-28T21:36:12.390Z,76.31
2023-01-28T21:38:39.965Z,77.65
2023-01-28T21:41:08.595Z,77.01
2023-01-28T21:43:36.029Z,77.73
2023-01-28T21:46:03.657Z,77.97
2023-01-28T21:48:36.971Z,77.78
2023-01-28T21:51:26.226Z,78.20
2023-01-28T21:53:53.645Z,79.55
2023-01-28T21:56:20.891Z,79.53
2023-01-28T21:59:06.420Z,78.85
2023-01-28T22:01:33.799Z,78.44
2023-01-28T22:04:01.122Z,78.61
2023-01-28T22:06:28.219Z,77.84
2023-01-28T22:08:55.372Z,77.06
2023-01-28T22:11:22.597Z,76.52
2023-01-28T22:13:50.013Z,76.79
2023-01-28T22:16:17.969Z,77.65
2023-01-28T22:18:46.310Z,77.85
2023-01-28T22:21:13.535Z,76.63
2023-01-28T22:23:40.709Z,77.59
2023-01-28T22:26:07.846Z,78.03
2023-01-28T22:28:36.966Z,77.80
2023-01-28T22:31:06.694Z,77.81
2023-01-28T22:33:35.105Z,78.16
2023-01-28T22:36:05.191Z,79.53
2023-01-28T22:38:32.370Z,80.83
2023-01-28T22:41:14.292Z,79.51
2023-01-28T22:43:41.609Z,79.45
2023-01-28T22:46:09.457Z,78.37
2023-01-28T22:48:38.502Z,79.73
2023-01-28T22:51:13.722Z,80.53
2023-01-28T22:53:41.223Z,80.44
2023-01-28T22:56:08.591Z,80.03
2023-01-28T22:58:36.093Z,80.04
2023-01-28T23:01:03.704Z,80.09
2023-01-28T23:03:30.877Z,80.07
2023-01-28T23:05:59.106Z,79.24
2023-01-28T23:08:27.237Z,78.93
2023-01-28T23:10:56.971Z,78.55
2023-01-28T23:13:25.704Z,78.63
2023-01-28T23:16:11.979Z,79.85
2023-01-28T23:18:57.854Z,81.20
2023-01-28T23:21:46.887Z,81.50
2023-01-28T23:24:20.558Z,81.18
2023-01-28T23:26:58.993Z,81.61
2023-01-28T23:29:28.040Z,83.06
2023-01-28T23:32:00.711Z,82.23
2023-01-28T23:34:31.323Z,82.23
2023-01-28T23:36:58.402Z,81.42
2023-01-28T23:39:25.669Z,82.18
2023-01-28T23:41:52.785Z,82.26
2023-01-28T23:44:24.658Z,82.00
2023-01-28T23:46:51.917Z,82.50
2023-01-28T23:49:19.423Z,82.87
2023-01-28T23:51:46.706Z,83.03
2023-01-28T23:54:13.768Z,84.22
2023-01-28T23:56:41.483Z,83.49
2023-01-28T23:59:08.575Z,84.34
